createdAt,value
2023-03-06T00:01:09.771Z,60.96
2023-03-06T00:03:41.137Z,60.80
2023-03-06T00:06:15.532Z,60.83
2023-03-06T00:08:42.158Z,61.17
2023-03-06T00:11:15.580Z,61.19
2023-03-06T00:13:44.620Z,61.63
2023-03-06T00:16:13.685Z,61.89
2023-03-06T00:18:40.409Z,61.92
2023-03-06T00:21:08.194Z,61.94
2023-03-06T00:23:34.852Z,62.36
2023-03-06T00:26:01.490Z,62.24
2023-03-06T00:28:31.059Z,62.56
2023-03-06T00:31:00.538Z,62.50
2023-03-06T00:33:31.237Z,62.91
2023-03-06T00:36:04.805Z,62.98
2023-03-06T00:38:33.524Z,62.82
2023-03-06T00:41:00.148Z,62.58
2023-03-06T00:43:32.698Z,62.40
2023-03-06T00:45:59.381Z,62.38
2023-03-06T00:48:28.489Z,62.60
2023-03-06T00:50:55.233Z,62.81
2023-03-06T00:53:28.964Z,62.72
2023-03-06T00:55:58.786Z,63.08
2023-03-06T00:58:30.602Z,63.14
2023-03-06T01:00:57.271Z,63.24
2023-03-06T01:03:26.224Z,63.65
2023-03-06T01:05:52.857Z,63.56
2023-03-06T01:08:21.856Z,63.38
2023-03-06T01:10:48.479Z,63.28
2023-03-06T01:13:16.090Z,63.53
2023-03-06T01:15:47.579Z,63.58
2023-03-06T01:18:21.663Z,63.59
2023-03-06T01:20:53.884Z,63.62
2023-03-06T01:23:23.018Z,63.60
2023-03-06T01:25:49.614Z,63.61
2023-03-06T01:28:22.322Z,63.43
2023-03-06T01:30:54.349Z,63.32
2023-03-06T01:33:21.010Z,63.29
2023-03-06T01:35:47.753Z,63.24
2023-03-06T01:38:16.659Z,63.03
2023-03-06T01:40:48.690Z,63.07
2023-03-06T01:43:26.847Z,63.02
2023-03-06T01:46:30.846Z,63.25
2023-03-06T01:49:02.336Z,62.95
2023-03-06T01:51:33.513Z,63.45
2023-03-06T01:54:08.828Z,63.55
2023-03-06T01:56:40.972Z,63.47
2023-03-06T01:59:13.072Z,63.75
2023-03-06T02:01:46.677Z,63.94
2023-03-06T02:04:16.899Z,63.94
2023-03-06T02:06:47.602Z,64.61
2023-03-06T02:09:17.044Z,64.69
2023-03-06T02:11:46.456Z,65.05
2023-03-06T02:14:18.320Z,64.83
2023-03-06T02:16:50.678Z,65.08
2023-03-06T02:19:42.821Z,65.39
2023-03-06T02:22:14.490Z,65.26
2023-03-06T02:25:00.713Z,65.76
2023-03-06T02:27:32.940Z,65.49
2023-03-06T02:29:59.673Z,65.71
2023-03-06T02:32:29.279Z,65.68
2023-03-06T02:35:00.038Z,65.60
2023-03-06T02:37:30.394Z,65.75
2023-03-06T02:40:08.333Z,65.83
2023-03-06T02:42:35.370Z,65.58
2023-03-06T02:45:03.586Z,65.68
2023-03-06T02:47:35.508Z,65.98
2023-03-06T02:50:02.279Z,65.95
2023-03-06T02:52:31.247Z,66.14
2023-03-06T02:55:00.246Z,66.00
2023-03-06T02:57:26.890Z,65.92
2023-03-06T03:00:00.922Z,65.88
2023-03-06T03:02:27.729Z,66.03
2023-03-06T03:05:00.325Z,65.96
2023-03-06T03:07:26.979Z,66.10
2023-03-06T03:09:55.901Z,66.11
2023-03-06T03:12:25.395Z,66.28
2023-03-06T03:14:52.006Z,66.44
2023-03-06T03:17:21.012Z,66.20
2023-03-06T03:19:51.601Z,66.15
2023-03-06T03:22:23.061Z,66.38
2023-03-06T03:24:50.185Z,66.27
2023-03-06T03:27:21.346Z,66.30
2023-03-06T03:29:50.754Z,66.32
2023-03-06T03:32:18.713Z,66.29
2023-03-06T03:34:50.232Z,66.54
2023-03-06T03:37:20.351Z,66.79
2023-03-06T03:39:53.280Z,66.72
2023-03-06T03:42:22.662Z,66.59
2023-03-06T03:44:53.709Z,66.85
2023-03-06T03:47:24.068Z,66.60
2023-03-06T03:49:56.221Z,66.64
2023-03-06T03:52:24.208Z,66.66
2023-03-06T03:54:55.750Z,67.02
2023-03-06T03:57:22.629Z,66.97
2023-03-06T03:59:59.214Z,67.48
2023-03-06T04:02:40.786Z,67.26
2023-03-06T04:05:22.603Z,67.36
2023-03-06T04:07:55.122Z,67.46
2023-03-06T04:10:26.402Z,67.23
2023-03-06T04:12:54.047Z,67.01
2023-03-06T04:15:20.926Z,66.86
2023-03-06T04:17:49.377Z,66.72
2023-03-06T04:20:27.965Z,66.90
2023-03-06T04:22:58.183Z,66.93
2023-03-06T04:25:27.216Z,66.80
2023-03-06T04:27:58.746Z,67.14
2023-03-06T04:30:25.803Z,67.35
2023-03-06T04:32:54.764Z,67.56
2023-03-06T04:35:24.202Z,67.52
2023-03-06T04:38:04.376Z,67.79
2023-03-06T04:40:34.753Z,67.58
2023-03-06T04:43:04.879Z,67.56
2023-03-06T04:45:32.567Z,67.78
2023-03-06T04:48:04.021Z,67.59
2023-03-06T04:50:33.438Z,67.57
2023-03-06T04:53:05.497Z,67.66
2023-03-06T04:55:35.012Z,67.78
2023-03-06T04:58:04.381Z,67.93
2023-03-06T05:00:33.354Z,67.96
2023-03-06T05:03:02.716Z,67.87
2023-03-06T05:05:29.600Z,67.78
2023-03-06T05:07:56.432Z,67.50
2023-03-06T05:10:25.913Z,67.37
2023-03-06T05:12:52.543Z,67.24
2023-03-06T05:15:21.428Z,67.30
2023-03-06T05:17:48.144Z,67.16
2023-03-06T05:20:15.665Z,67.33
2023-03-06T05:22:45.010Z,67.29
2023-03-06T05:25:14.105Z,67.59
2023-03-06T05:27:45.825Z,67.93
2023-03-06T05:30:16.160Z,67.88
2023-03-06T05:32:45.235Z,67.93
2023-03-06T05:35:20.957Z,67.65
2023-03-06T05:37:50.589Z,67.45
2023-03-06T05:40:18.892Z,67.27
2023-03-06T05:42:48.017Z,67.08
2023-03-06T05:45:17.157Z,67.04
2023-03-06T05:47:46.322Z,67.14
2023-03-06T05:50:20.199Z,67.25
2023-03-06T05:52:54.600Z,67.25
2023-03-06T05:55:21.856Z,67.25
2023-03-06T05:57:50.908Z,67.24
2023-03-06T06:00:20.774Z,67.23
2023-03-06T06:02:54.621Z,67.21
2023-03-06T06:05:21.317Z,67.48
2023-03-06T06:07:52.880Z,67.91
2023-03-06T06:10:21.844Z,68.07
2023-03-06T06:12:48.452Z,67.89
2023-03-06T06:15:20.050Z,67.82
2023-03-06T06:17:51.492Z,67.80
2023-03-06T06:20:20.798Z,67.57
2023-03-06T06:22:47.409Z,67.38
2023-03-06T06:25:14.313Z,67.64
2023-03-06T06:27:43.546Z,67.72
2023-03-06T06:30:13.263Z,67.71
2023-03-06T06:32:44.757Z,67.61
2023-03-06T06:35:16.664Z,67.49
2023-03-06T06:37:45.831Z,67.55
2023-03-06T06:40:15.159Z,67.43
2023-03-06T06:42:41.913Z,67.03
2023-03-06T06:45:11.715Z,67.25
2023-03-06T06:47:41.794Z,67.06
2023-03-06T06:50:17.264Z,67.48
2023-03-06T06:52:48.684Z,66.93
2023-03-06T06:55:15.320Z,66.71
2023-03-06T06:57:44.316Z,67.06
2023-03-06T07:00:15.124Z,66.60
2023-03-06T07:02:44.264Z,66.50
2023-03-06T07:05:13.260Z,66.58
2023-03-06T07:07:44.989Z,66.28
2023-03-06T07:10:19.941Z,65.64
2023-03-06T07:12:47.464Z,65.58
2023-03-06T07:15:15.552Z,65.17
2023-03-06T07:17:49.830Z,65.32
2023-03-06T07:20:23.037Z,65.02
2023-03-06T07:22:52.071Z,65.12
2023-03-06T07:25:25.473Z,64.95
2023-03-06T07:27:57.660Z,64.82
2023-03-06T07:30:29.335Z,63.99
2023-03-06T07:33:00.084Z,64.47
2023-03-06T07:35:31.514Z,63.92
2023-03-06T07:38:00.764Z,64.06
2023-03-06T07:40:29.725Z,63.32
2023-03-06T07:43:13.014Z,63.14
2023-03-06T07:45:56.575Z,63.64
2023-03-06T07:48:23.208Z,63.25
2023-03-06T07:50:58.458Z,62.75
2023-03-06T07:53:26.030Z,62.76
2023-03-06T07:55:53.105Z,62.74
2023-03-06T07:58:22.111Z,62.63
2023-03-06T08:00:51.071Z,62.67
2023-03-06T08:03:24.753Z,62.80
2023-03-06T08:06:04.229Z,62.81
2023-03-06T08:08:30.842Z,63.05
2023-03-06T08:10:57.511Z,62.84
2023-03-06T08:13:26.154Z,63.08
2023-03-06T08:15:56.318Z,62.04
2023-03-06T08:18:25.384Z,62.24
2023-03-06T08:21:01.803Z,62.14
2023-03-06T08:23:28.541Z,62.43
2023-03-06T08:26:01.558Z,62.37
2023-03-06T08:28:33.906Z,62.04
2023-03-06T08:31:11.698Z,61.92
2023-03-06T08:33:44.270Z,61.80
2023-03-06T08:36:13.198Z,61.86
2023-03-06T08:38:42.540Z,61.58
2023-03-06T08:41:11.509Z,61.34
2023-03-06T08:43:40.560Z,61.98
2023-03-06T08:46:14.778Z,61.44
2023-03-06T08:48:47.774Z,61.24
2023-03-06T08:51:16.778Z,61.00
2023-03-06T08:53:46.228Z,61.08
2023-03-06T08:56:20.487Z,61.29
2023-03-06T08:58:50.908Z,62.11
2023-03-06T09:01:27.769Z,61.85
2023-03-06T09:04:02.253Z,62.12
2023-03-06T09:06:32.542Z,62.51
2023-03-06T09:08:59.782Z,62.29
2023-03-06T09:11:27.280Z,62.37
2023-03-06T09:13:57.054Z,62.68
2023-03-06T09:16:24.462Z,62.64
2023-03-06T09:18:54.133Z,62.63
2023-03-06T09:21:22.269Z,62.61
2023-03-06T09:23:54.054Z,62.70
2023-03-06T09:26:43.284Z,62.11
2023-03-06T09:29:12.684Z,62.46
2023-03-06T09:31:43.963Z,62.71
2023-03-06T09:34:13.153Z,63.03
2023-03-06T09:36:56.615Z,62.93
2023-03-06T09:39:28.092Z,63.24
2023-03-06T09:41:58.517Z,63.30
2023-03-06T09:44:34.544Z,62.81
2023-03-06T09:47:24.900Z,62.51
2023-03-06T09:50:12.710Z,62.30
2023-03-06T09:53:15.409Z,61.53
2023-03-06T09:55:51.711Z,61.85
2023-03-06T09:58:25.154Z,61.91
2023-03-06T10:01:01.066Z,61.72
2023-03-06T10:03:32.334Z,61.55
2023-03-06T10:06:06.845Z,61.87
2023-03-06T10:08:45.809Z,62.01
2023-03-06T10:11:22.309Z,61.86
2023-03-06T10:13:54.204Z,61.48
2023-03-06T10:16:31.166Z,60.76
2023-03-06T10:19:03.591Z,61.45
2023-03-06T10:21:55.311Z,61.32
2023-03-06T10:24:46.898Z,60.34
2023-03-06T10:27:40.704Z,60.86
2023-03-06T10:30:32.805Z,60.55
2023-03-06T10:33:01.880Z,61.06
2023-03-06T10:35:42.323Z,60.75
2023-03-06T10:38:37.501Z,60.16
2023-03-06T10:41:15.450Z,60.68
2023-03-06T10:44:04.779Z,60.95
2023-03-06T10:46:41.847Z,60.50
2023-03-06T10:49:30.086Z,59.83
2023-03-06T10:52:07.719Z,60.01
2023-03-06T10:54:43.080Z,60.27
2023-03-06T10:57:29.680Z,59.65
2023-03-06T11:00:01.250Z,59.87
2023-03-06T11:02:34.028Z,60.22
2023-03-06T11:05:09.391Z,60.14
2023-03-06T11:07:52.911Z,60.20
2023-03-06T11:10:20.558Z,59.89
2023-03-06T11:12:58.736Z,59.57
2023-03-06T11:15:27.386Z,59.54
2023-03-06T11:17:56.604Z,59.88
2023-03-06T11:20:48.606Z,59.93
2023-03-06T11:23:31.476Z,59.53
2023-03-06T11:26:02.594Z,59.67
2023-03-06T11:28:37.342Z,59.71
2023-03-06T11:31:10.530Z,59.42
2023-03-06T11:33:52.944Z,59.63
2023-03-06T11:36:29.288Z,59.49
2023-03-06T11:38:56.460Z,59.06
2023-03-06T11:41:57.867Z,58.85
2023-03-06T11:44:54.067Z,58.86
2023-03-06T11:47:32.036Z,59.54
2023-03-06T11:50:20.300Z,58.54
2023-03-06T11:53:00.412Z,58.94
2023-03-06T11:56:00.071Z,58.75
2023-03-06T11:59:07.782Z,57.59
2023-03-06T12:01:41.268Z,58.82
2023-03-06T12:04:19.256Z,58.96
2023-03-06T12:07:10.359Z,58.59
2023-03-06T12:09:56.808Z,59.07
2023-03-06T12:12:45.823Z,59.41
2023-03-06T12:15:14.716Z,59.30
2023-03-06T12:17:55.153Z,58.20
2023-03-06T12:20:58.778Z,57.94
2023-03-06T12:23:37.593Z,57.76
2023-03-06T12:26:22.292Z,58.13
2023-03-06T12:29:06.442Z,58.13
2023-03-06T12:32:10.234Z,58.26
2023-03-06T12:34:57.688Z,58.20
2023-03-06T12:37:49.379Z,57.83
2023-03-06T12:40:23.585Z,58.47
2023-03-06T12:43:10.808Z,58.48
2023-03-06T12:45:40.944Z,58.78
2023-03-06T12:48:18.533Z,58.17
2023-03-06T12:50:46.049Z,56.88
2023-03-06T12:53:23.576Z,57.72
2023-03-06T12:55:51.002Z,58.05
2023-03-06T12:58:32.515Z,56.17
2023-03-06T13:01:20.031Z,57.42
2023-03-06T13:04:07.092Z,57.72
2023-03-06T13:06:54.213Z,57.85
2023-03-06T13:09:42.214Z,58.16
2023-03-06T13:12:28.938Z,57.45
2023-03-06T13:14:58.373Z,57.01
2023-03-06T13:17:34.485Z,56.74
2023-03-06T13:20:26.974Z,56.78
2023-03-06T13:22:56.734Z,57.74
2023-03-06T13:25:28.939Z,57.74
2023-03-06T13:27:57.695Z,57.45
2023-03-06T13:30:36.677Z,58.11
2023-03-06T13:33:32.427Z,57.89
2023-03-06T13:36:28.693Z,57.20
2023-03-06T13:39:16.473Z,57.73
2023-03-06T13:41:59.058Z,57.91
2023-03-06T13:44:28.352Z,57.53
2023-03-06T13:47:27.487Z,57.91
2023-03-06T13:49:54.187Z,58.37
2023-03-06T13:52:46.071Z,57.74
2023-03-06T13:55:12.648Z,57.87
2023-03-06T13:57:47.692Z,57.47
2023-03-06T14:00:22.274Z,57.57
2023-03-06T14:03:16.276Z,57.46
2023-03-06T14:05:50.988Z,58.00
2023-03-06T14:08:19.932Z,58.00
2023-03-06T14:11:06.803Z,58.00
2023-03-06T14:13:47.089Z,57.93
2023-03-06T14:16:22.154Z,57.35
2023-03-06T14:18:53.891Z,57.43
2023-03-06T14:21:47.550Z,57.27
2023-03-06T14:24:17.106Z,57.91
2023-03-06T14:26:51.304Z,57.79
2023-03-06T14:29:28.269Z,57.85
2023-03-06T14:32:02.420Z,57.94
2023-03-06T14:34:45.867Z,57.45
2023-03-06T14:37:22.020Z,57.42
2023-03-06T14:39:56.125Z,57.77
2023-03-06T14:42:25.293Z,57.33
2023-03-06T14:45:24.864Z,57.23
2023-03-06T14:47:53.052Z,57.71
2023-03-06T14:50:30.016Z,56.98
2023-03-06T14:52:57.722Z,57.31
2023-03-06T14:55:30.209Z,57.38
2023-03-06T14:58:02.145Z,57.71
2023-03-06T15:00:38.634Z,57.64
2023-03-06T15:03:12.817Z,57.40
2023-03-06T15:05:48.995Z,57.47
2023-03-06T15:08:25.399Z,57.68
2023-03-06T15:11:01.083Z,57.30
2023-03-06T15:13:29.863Z,57.61
2023-03-06T15:16:06.747Z,57.92
2023-03-06T15:18:55.190Z,57.83
2023-03-06T15:21:24.169Z,58.03
2023-03-06T15:23:56.049Z,58.02
2023-03-06T15:26:25.919Z,58.04
2023-03-06T15:29:10.013Z,56.67
2023-03-06T15:31:42.664Z,55.64
2023-03-06T15:34:09.313Z,56.80
2023-03-06T15:36:44.487Z,57.23
2023-03-06T15:39:32.498Z,56.63
2023-03-06T15:42:18.254Z,57.22
2023-03-06T15:44:54.014Z,56.80
2023-03-06T15:47:21.909Z,57.32
2023-03-06T15:49:52.142Z,57.42
2023-03-06T15:52:20.294Z,57.63
2023-03-06T15:54:51.780Z,56.03
2023-03-06T15:57:29.394Z,56.49
2023-03-06T15:59:57.388Z,56.33
2023-03-06T16:02:27.571Z,56.48
2023-03-06T16:04:54.277Z,56.14
2023-03-06T16:07:21.301Z,56.53
2023-03-06T16:09:48.280Z,56.33
2023-03-06T16:12:22.703Z,56.41
2023-03-06T16:14:55.181Z,56.59
2023-03-06T16:17:24.183Z,56.57
2023-03-06T16:19:53.097Z,56.42
2023-03-06T16:22:24.686Z,56.62
2023-03-06T16:24:54.010Z,55.36
2023-03-06T16:27:28.260Z,56.01
2023-03-06T16:29:59.841Z,56.21
2023-03-06T16:32:28.702Z,55.84
2023-03-06T16:34:55.497Z,55.71
2023-03-06T16:37:24.592Z,55.75
2023-03-06T16:39:53.511Z,55.58
2023-03-06T16:42:23.273Z,54.86
2023-03-06T16:44:52.184Z,55.31
2023-03-06T16:47:18.819Z,55.32
2023-03-06T16:49:52.046Z,53.83
2023-03-06T16:52:21.097Z,54.15
2023-03-06T16:54:52.915Z,54.50
2023-03-06T16:57:21.905Z,54.46
2023-03-06T16:59:51.500Z,55.08
2023-03-06T17:02:23.470Z,53.49
2023-03-06T17:04:57.624Z,54.37
2023-03-06T17:07:26.982Z,54.33
2023-03-06T17:09:58.527Z,55.02
2023-03-06T17:12:25.255Z,54.34
2023-03-06T17:14:54.789Z,54.93
2023-03-06T17:17:23.688Z,55.15
2023-03-06T17:19:53.140Z,55.38
2023-03-06T17:22:25.274Z,55.39
2023-03-06T17:24:54.946Z,55.36
2023-03-06T17:27:22.771Z,55.14
2023-03-06T17:29:49.507Z,55.47
2023-03-06T17:32:20.721Z,55.92
2023-03-06T17:34:47.558Z,55.27
2023-03-06T17:37:16.763Z,55.45
2023-03-06T17:39:45.984Z,55.46
2023-03-06T17:42:17.254Z,55.82
2023-03-06T17:44:47.989Z,55.37
2023-03-06T17:47:14.846Z,55.94
2023-03-06T17:49:43.873Z,56.00
2023-03-06T17:52:11.169Z,55.96
2023-03-06T17:54:42.620Z,56.42
2023-03-06T17:57:12.341Z,56.06
2023-03-06T17:59:39.228Z,56.46
2023-03-06T18:02:06.450Z,56.39
2023-03-06T18:04:33.317Z,56.33
2023-03-06T18:07:04.608Z,56.16
2023-03-06T18:09:31.264Z,56.31
2023-03-06T18:12:02.890Z,56.30
2023-03-06T18:14:32.013Z,56.46
2023-03-06T18:16:58.766Z,56.64
2023-03-06T18:19:27.804Z,56.69
2023-03-06T18:21:56.663Z,56.88
2023-03-06T18:24:23.553Z,57.07
2023-03-06T18:26:52.532Z,57.04
2023-03-06T18:29:21.722Z,56.98
2023-03-06T18:31:50.453Z,57.12
2023-03-06T18:34:22.846Z,56.61
2023-03-06T18:36:51.675Z,56.96
2023-03-06T18:39:19.264Z,57.65
2023-03-06T18:41:51.814Z,58.20
2023-03-06T18:44:19.021Z,58.37
2023-03-06T18:46:48.028Z,58.34
2023-03-06T18:49:17.505Z,58.28
2023-03-06T18:51:44.407Z,58.31
2023-03-06T18:54:11.752Z,58.32
2023-03-06T18:56:44.182Z,58.14
2023-03-06T18:59:18.901Z,58.30
2023-03-06T19:01:51.924Z,58.55
2023-03-06T19:04:21.253Z,58.28
2023-03-06T19:06:51.452Z,58.54
2023-03-06T19:09:20.622Z,58.35
2023-03-06T19:11:49.692Z,58.20
2023-03-06T19:14:18.822Z,58.37
2023-03-06T19:16:50.104Z,57.86
2023-03-06T19:19:21.386Z,57.33
2023-03-06T19:21:50.374Z,56.78
2023-03-06T19:24:21.690Z,56.94
2023-03-06T19:26:48.511Z,56.00
2023-03-06T19:29:17.614Z,56.82
2023-03-06T19:31:44.614Z,56.68
2023-03-06T19:34:11.333Z,56.52
2023-03-06T19:36:40.645Z,57.10
2023-03-06T19:39:11.170Z,57.05
2023-03-06T19:41:37.832Z,57.20
2023-03-06T19:44:06.013Z,57.00
2023-03-06T19:46:37.749Z,56.93
2023-03-06T19:49:11.853Z,56.50
2023-03-06T19:51:38.760Z,56.74
2023-03-06T19:54:05.494Z,56.56
2023-03-06T19:56:33.811Z,55.90
2023-03-06T19:59:02.948Z,56.35
2023-03-06T20:01:33.780Z,56.26
2023-03-06T20:04:00.634Z,56.50
2023-03-06T20:06:39.024Z,55.99
2023-03-06T20:09:11.289Z,55.99
2023-03-06T20:11:40.453Z,56.06
2023-03-06T20:14:10.543Z,55.72
2023-03-06T20:16:37.872Z,55.66
2023-03-06T20:19:05.604Z,56.23
2023-03-06T20:21:37.654Z,56.08
2023-03-06T20:24:08.420Z,56.24
2023-03-06T20:26:37.691Z,56.46
2023-03-06T20:29:09.586Z,56.12
2023-03-06T20:31:40.809Z,56.93
2023-03-06T20:34:13.816Z,56.50
2023-03-06T20:36:43.196Z,56.75
2023-03-06T20:39:14.642Z,57.06
2023-03-06T20:41:44.246Z,56.96
2023-03-06T20:44:15.399Z,57.04
2023-03-06T20:46:44.947Z,56.96
2023-03-06T20:49:16.680Z,56.96
2023-03-06T20:51:45.967Z,56.89
2023-03-06T20:54:14.916Z,57.18
2023-03-06T20:56:44.881Z,57.07
2023-03-06T20:59:14.672Z,57.18
2023-03-06T21:01:43.638Z,57.05
2023-03-06T21:04:13.973Z,57.02
2023-03-06T21:06:44.158Z,57.16
2023-03-06T21:09:10.928Z,57.19
2023-03-06T21:11:37.747Z,56.98
2023-03-06T21:14:04.716Z,57.46
2023-03-06T21:16:31.818Z,57.26
2023-03-06T21:19:01.696Z,57.30
2023-03-06T21:21:35.984Z,57.30
2023-03-06T21:24:05.320Z,57.34
2023-03-06T21:26:35.963Z,57.35
2023-03-06T21:29:05.662Z,57.44
2023-03-06T21:31:33.526Z,57.65
2023-03-06T21:34:01.259Z,58.04
2023-03-06T21:36:33.725Z,58.10
2023-03-06T21:39:06.417Z,57.97
2023-03-06T21:41:35.980Z,57.61
2023-03-06T21:44:05.308Z,57.61
2023-03-06T21:46:32.810Z,57.55
2023-03-06T21:49:04.185Z,57.35
2023-03-06T21:51:36.248Z,57.36
2023-03-06T21:54:13.109Z,57.58
2023-03-06T21:56:39.947Z,57.64
2023-03-06T21:59:06.645Z,57.73
2023-03-06T22:01:37.690Z,57.64
2023-03-06T22:04:06.769Z,57.83
2023-03-06T22:06:33.499Z,58.14
2023-03-06T22:09:01.191Z,57.82
2023-03-06T22:11:36.992Z,57.87
2023-03-06T22:14:06.629Z,58.17
2023-03-06T22:16:38.122Z,58.23
2023-03-06T22:19:09.884Z,58.44
2023-03-06T22:21:41.384Z,58.05
2023-03-06T22:24:15.368Z,58.20
2023-03-06T22:26:44.286Z,58.15
2023-03-06T22:29:15.884Z,57.90
2023-03-06T22:31:42.659Z,58.17
2023-03-06T22:34:11.948Z,58.27
2023-03-06T22:36:38.616Z,58.12
2023-03-06T22:39:10.194Z,58.35
2023-03-06T22:41:42.470Z,58.46
2023-03-06T22:44:19.531Z,58.39
2023-03-06T22:46:48.997Z,58.59
2023-03-06T22:49:16.964Z,58.82
2023-03-06T22:51:44.975Z,58.83
2023-03-06T22:54:11.935Z,58.89
2023-03-06T22:56:38.720Z,59.33
2023-03-06T22:59:06.529Z,59.12
2023-03-06T23:01:35.578Z,59.15
2023-03-06T23:04:04.005Z,59.45
2023-03-06T23:06:39.986Z,59.57
2023-03-06T23:09:08.494Z,59.51
2023-03-06T23:11:53.557Z,59.27
2023-03-06T23:14:39.255Z,59.90
2023-03-06T23:17:25.017Z,59.78
2023-03-06T23:20:12.057Z,59.81
2023-03-06T23:22:57.582Z,59.83
2023-03-06T23:25:43.878Z,59.84
2023-03-06T23:28:11.112Z,59.81
2023-03-06T23:30:39.413Z,60.11
2023-03-06T23:33:06.834Z,60.39
2023-03-06T23:35:39.231Z,60.04
2023-03-06T23:38:06.558Z,60.19
2023-03-06T23:40:34.612Z,60.36
2023-03-06T23:43:04.765Z,60.31
2023-03-06T23:45:32.195Z,60.48
2023-03-06T23:47:59.243Z,60.66
2023-03-06T23:50:26.365Z,60.73
2023-03-06T23:52:54.327Z,60.59
2023-03-06T23:55:23.464Z,60.84
2023-03-06T23:57:52.660Z,60.63
